Time;durP1;ratioP1;P1;durP2;ratioP2;P2;SDS_P1;SDS_P2;PMS_P1;PMS_P2;Temp;Humidity;BMP_temperature;BMP_pressure;BME280_temperature;BME280_humidity;BME280_pressure;Samples;Min_cycle;Max_cycle;Signal;HPM_P1;HPM_P2
2022/09/24 00:02:32;;;;;;;80.25;49.60;;;;;;;10.24;100.00;100969.91;12928953;22;20003;-87
2022/09/24 00:07:32;;;;;;;90.38;52.55;;;;;;;10.47;100.00;100981.84;12953292;22;20321;-86
2022/09/24 00:12:33;;;;;;;83.40;51.80;;;;;;;10.48;100.00;100997.31;12952986;22;20020;-87
2022/09/24 00:17:34;;;;;;;89.20;52.40;;;;;;;9.47;100.00;100835.78;12902746;22;20022;-87
2022/09/24 00:22:34;;;;;;;90.82;52.75;;;;;;;10.50;100.00;100984.13;12954172;22;20007;-87
2022/09/24 00:27:35;;;;;;;88.78;53.35;;;;;;;10.22;100.00;100922.53;12929301;22;20000;-87
2022/09/24 00:32:35;;;;;;;93.10;54.95;;;;;;;10.21;100.00;100918.13;12954630;22;19999;-87
2022/09/24 00:37:36;;;;;;;89.30;54.05;;;;;;;11.42;100.00;101123.22;12936859;22;20015;-87
2022/09/24 00:42:38;;;;;;;95.53;55.85;;;;;;;10.77;100.00;100995.28;12955850;22;20094;-87
2022/09/24 00:47:39;;;;;;;89.75;55.85;;;;;;;10.96;100.00;101042.63;12955441;22;20027;-87
2022/09/24 00:52:44;;;;;;;97.65;58.97;;;;;;;11.44;100.00;101143.09;12939590;22;20007;-87
2022/09/24 00:57:45;;;;;;;107.25;59.17;;;;;;;10.36;100.00;100958.84;12956228;22;20020;-87
2022/09/24 01:02:45;;;;;;;103.13;61.78;;;;;;;10.81;100.00;101045.16;12954094;22;20426;-88
2022/09/24 01:07:49;;;;;;;102.72;62.85;;;;;;;11.63;100.00;101140.03;12953610;22;20007;-88
2022/09/24 01:12:57;;;;;;;121.00;66.25;;;;;;;10.62;100.00;100970.25;12951980;22;20014;-88
2022/09/24 01:18:06;;;;;;;117.68;68.13;;;;;;;11.51;100.00;101127.22;12926684;22;20065;-87
2022/09/24 01:23:16;;;;;;;116.13;67.65;;;;;;;10.92;100.00;101024.94;12981631;22;20018;-87
2022/09/24 01:28:38;;;;;;;116.15;68.00;;;;;;;12.28;100.00;101194.44;12982812;22;20011;-87
2022/09/24 01:33:39;;;;;;;111.55;67.10;;;;;;;11.58;100.00;101127.03;13031005;22;20003;-86
2022/09/24 01:38:41;;;;;;;114.15;65.90;;;;;;;11.40;100.00;101053.72;12980262;22;20000;-87
2022/09/24 01:43:41;;;;;;;113.07;66.53;;;;;;;10.86;100.00;100943.34;12979528;22;20003;-87
2022/09/24 01:48:42;;;;;;;124.25;68.18;;;;;;;10.65;100.00;100926.53;13006733;22;20018;-87
2022/09/24 01:53:56;;;;;;;117.32;68.90;;;;;;;10.55;100.00;100926.38;12965639;22;20018;-87
2022/09/24 01:59:01;;;;;;;121.40;70.72;;;;;;;11.73;100.00;101067.66;12978077;22;20007;-87
2022/09/24 02:04:05;;;;;;;133.55;73.28;;;;;;;11.26;100.00;101009.16;12979445;22;20023;-87
2022/09/24 02:09:32;;;;;;;125.95;72.40;;;;;;;11.68;100.00;101068.44;12979055;22;20058;-87
2022/09/24 02:14:37;;;;;;;137.25;74.78;;;;;;;10.83;100.00;100914.38;13003493;22;20016;-87
2022/09/24 02:19:38;;;;;;;140.52;76.75;;;;;;;11.14;100.00;100960.75;12937667;22;20346;-87
2022/09/24 02:24:52;;;;;;;148.43;78.00;;;;;;;12.43;100.00;101165.34;13001733;22;20002;-87
2022/09/24 02:29:54;;;;;;;149.43;80.45;;;;;;;12.43;100.00;101157.06;12978669;22;20014;-88
2022/09/24 02:35:00;;;;;;;153.32;79.28;;;;;;;11.51;100.00;101022.44;13001703;22;20011;-87
2022/09/24 02:40:02;;;;;;;151.05;81.43;;;;;;;11.66;100.00;101034.75;12980899;22;20060;-87
2022/09/24 02:45:04;;;;;;;159.52;85.72;;;;;;;11.78;100.00;101065.78;12978514;22;20065;-87
2022/09/24 02:50:05;;;;;;;149.75;79.95;;;;;;;12.45;100.00;101141.06;12951892;22;20004;-88
2022/09/24 02:55:06;;;;;;;160.60;83.28;;;;;;;10.93;100.00;100916.41;12977809;22;20086;-87
2022/09/24 03:00:08;;;;;;;154.05;83.97;;;;;;;10.78;100.00;100913.47;12983235;22;20018;-87
2022/09/24 03:05:09;;;;;;;154.75;81.75;;;;;;;11.21;100.00;100989.81;12982114;22;20505;-88
2022/09/24 03:10:09;;;;;;;162.60;82.90;;;;;;;11.93;100.00;101100.16;12955987;22;20007;-87
2022/09/24 03:15:10;;;;;;;158.43;82.15;;;;;;;10.96;100.00;100921.44;12965382;22;20015;-87
2022/09/24 03:20:11;;;;;;;147.40;79.80;;;;;;;10.50;100.00;100882.28;13005806;22;20425;-87
2022/09/24 03:25:11;;;;;;;155.40;79.68;;;;;;;11.52;100.00;101056.34;12953219;22;20029;-87
2022/09/24 03:35:31;;;;;;;155.63;78.40;;;;;;;10.60;100.00;100909.09;12976004;22;20007;-86
2022/09/24 03:40:32;;;;;;;157.18;80.63;;;;;;;11.89;100.00;101113.66;12982082;22;20090;-87
2022/09/24 03:45:32;;;;;;;164.48;82.75;;;;;;;11.96;100.00;101094.16;12979672;22;20008;-87
2022/09/24 03:50:36;;;;;;;159.40;82.00;;;;;;;11.37;100.00;100993.59;12978284;22;20009;-87
2022/09/24 03:55:48;;;;;;;163.73;82.47;;;;;;;11.55;100.00;101021.91;12979664;22;20015;-88
2022/09/24 04:00:51;;;;;;;167.45;82.40;;;;;;;12.45;100.00;101188.84;12939539;22;20003;-87
2022/09/24 04:05:52;;;;;;;167.63;81.88;;;;;;;10.55;100.00;100865.00;13004539;22;20003;-88
2022/09/24 04:10:54;;;;;;;161.23;80.95;;;;;;;11.41;100.00;101000.28;12975699;22;20026;-86
2022/09/24 04:15:54;;;;;;;164.63;83.72;;;;;;;11.38;100.00;101025.56;12964300;22;20015;-87
2022/09/24 04:21:01;;;;;;;164.20;84.03;;;;;;;12.43;100.00;101159.81;12982285;22;20182;-87
2022/09/24 04:26:02;;;;;;;175.60;80.18;;;;;;;11.39;100.00;100994.19;12955154;22;20430;-87
2022/09/24 04:31:02;;;;;;;168.40;85.00;;;;;;;11.05;100.00;100921.81;12979774;22;20008;-87
2022/09/24 04:36:03;;;;;;;176.45;83.28;;;;;;;11.65;100.00;101071.69;12954080;22;20035;-86
2022/09/24 04:41:05;;;;;;;187.75;84.55;;;;;;;11.87;100.00;101091.81;12952546;22;20078;-86
2022/09/24 04:46:08;;;;;;;181.07;86.18;;;;;;;11.17;100.00;100965.78;12952437;22;20011;-87
2022/09/24 04:51:09;;;;;;;179.95;83.65;;;;;;;11.18;100.00;100989.47;12967276;22;20035;-87
2022/09/24 04:56:10;;;;;;;178.90;84.05;;;;;;;10.51;100.00;100867.41;12953827;22;20015;-87
2022/09/24 05:01:12;;;;;;;217.82;86.22;;;;;;;12.29;100.00;101165.72;12953207;22;20003;-88
2022/09/24 05:06:12;;;;;;;215.02;89.85;;;;;;;10.67;100.00;100924.34;12936609;22;20007;-87
2022/09/24 05:11:13;;;;;;;206.52;92.55;;;;;;;10.88;100.00;100924.63;12951754;22;20102;-89
2022/09/24 05:16:17;;;;;;;204.50;88.97;;;;;;;10.55;100.00;100904.34;12936455;22;20059;-88
2022/09/24 05:21:17;;;;;;;204.02;87.75;;;;;;;11.28;100.00;101006.97;12979027;22;20090;-88
2022/09/24 05:31:37;;;;;;;229.60;95.18;;;;;;;11.80;100.00;101090.34;12989447;22;20007;-88
2022/09/24 05:36:38;;;;;;;228.45;93.80;;;;;;;11.17;100.00;100976.81;12951368;22;20426;-87
2022/09/24 05:41:39;;;;;;;224.40;89.60;;;;;;;12.01;100.00;101121.78;12940327;22;20007;-86
2022/09/24 05:46:40;;;;;;;229.63;96.15;;;;;;;10.16;100.00;100868.53;12979957;22;20043;-89
2022/09/24 05:51:40;;;;;;;233.30;93.65;;;;;;;11.87;100.00;101119.41;12954799;22;20018;-87
2022/09/24 05:56:41;;;;;;;229.63;91.57;;;;;;;10.93;100.00;100960.50;12955043;22;20022;-89
2022/09/24 06:01:42;;;;;;;218.05;93.30;;;;;;;11.81;100.00;101098.38;12980810;22;20019;-89
2022/09/24 06:06:43;;;;;;;204.70;90.68;;;;;;;11.46;100.00;101024.31;12965113;22;20007;-89
2022/09/24 06:11:44;;;;;;;214.88;92.45;;;;;;;11.85;100.00;101137.31;12979284;22;20007;-89
2022/09/24 06:16:45;;;;;;;216.98;88.82;;;;;;;11.26;100.00;101020.19;12988229;22;20038;-89
2022/09/24 06:21:47;;;;;;;212.73;89.32;;;;;;;10.68;100.00;100908.66;12982554;22;20021;-89
2022/09/24 06:26:47;;;;;;;215.10;87.72;;;;;;;11.86;100.00;101057.03;12957270;22;20030;-90
2022/09/24 06:31:48;;;;;;;209.13;90.78;;;;;;;11.82;100.00;101077.13;12956615;22;20030;-89
2022/09/24 06:36:53;;;;;;;195.05;84.45;;;;;;;11.14;100.00;100964.38;12957784;22;20015;-88
2022/09/24 06:41:55;;;;;;;202.23;84.63;;;;;;;11.34;100.00;100961.03;12984763;22;20040;-87
2022/09/24 06:46:56;;;;;;;194.32;84.57;;;;;;;11.54;100.00;100970.63;12925877;22;20015;-86
2022/09/24 06:51:57;;;;;;;195.13;82.78;;;;;;;12.21;100.00;101099.94;12978960;22;20000;-90
2022/09/24 06:56:58;;;;;;;199.13;84.57;;;;;;;11.93;100.00;101056.88;12953177;22;20041;-87
2022/09/24 07:01:58;;;;;;;193.30;82.57;;;;;;;11.56;100.00;100962.94;12966776;22;20012;-89
2022/09/24 07:12:18;;;;;;;194.60;83.15;;;;;;;11.25;100.00;100852.34;13007173;22;20086;-88
2022/09/24 07:17:18;;;;;;;142.45;62.72;;;;;;;12.23;100.00;101009.44;12979405;22;20019;-90
2022/09/24 07:22:19;;;;;;;37.67;14.93;;;;;;;11.94;100.00;100966.66;12951845;22;20447;-90
2022/09/24 07:27:22;;;;;;;22.35;5.80;;;;;;;12.25;100.00;100998.13;12979970;22;20057;-89
2022/09/24 07:32:23;;;;;;;13.70;4.50;;;;;;;12.83;100.00;101065.44;12980246;22;20035;-84
2022/09/24 07:37:23;;;;;;;14.15;3.30;;;;;;;12.99;100.00;101082.97;13007800;22;20019;-85
2022/09/24 07:42:24;;;;;;;12.57;2.97;;;;;;;12.30;100.00;101000.94;12978952;22;20023;-87
2022/09/24 07:47:25;;;;;;;18.35;2.85;;;;;;;11.94;100.00;100934.38;12979379;22;20361;-87
2022/09/24 07:52:25;;;;;;;10.65;1.80;;;;;;;12.65;100.00;101000.41;12979851;22;20042;-87
2022/09/24 07:57:26;;;;;;;15.20;2.20;;;;;;;12.62;100.00;101000.09;13024203;22;20015;-90
2022/09/24 08:02:26;;;;;;;14.75;2.85;;;;;;;12.98;100.00;101066.63;12980907;22;20034;-89
2022/09/24 08:07:27;;;;;;;12.25;2.67;;;;;;;13.87;100.00;101193.06;12980770;22;20351;-89
2022/09/24 08:12:27;;;;;;;12.45;2.72;;;;;;;13.44;100.00;101136.09;12978239;22;20425;-86
2022/09/24 08:17:28;;;;;;;12.48;2.63;;;;;;;12.95;100.00;101067.19;12787568;22;20013;-87
2022/09/24 08:22:28;;;;;;;7.82;3.22;;;;;;;12.62;100.00;101000.91;12773751;22;20522;-88
2022/09/24 08:27:31;;;;;;;13.20;2.97;;;;;;;12.40;100.00;100976.19;12684638;22;20067;-88
2022/09/24 08:32:32;;;;;;;9.07;2.05;;;;;;;13.31;100.00;101137.38;12774388;22;20309;-88
2022/09/24 08:37:32;;;;;;;10.32;2.70;;;;;;;13.69;100.00;101176.91;12648208;22;20021;-88
2022/09/24 08:42:35;;;;;;;8.70;1.95;;;;;;;13.57;100.00;101137.56;12752821;22;20036;-86
2022/09/24 08:47:50;;;;;;;10.85;2.13;;;;;;;14.05;100.00;101160.47;12826615;22;20006;-88
2022/09/24 08:53:09;;;;;;;12.90;2.53;;;;;;;14.57;100.00;101192.78;12811747;22;20018;-88
2022/09/24 08:58:15;;;;;;;11.15;2.63;;;;;;;14.84;100.00;101191.75;12875142;22;20042;-86
2022/09/24 09:03:55;;;;;;;13.15;2.10;;;;;;;14.93;100.00;101187.34;12840580;22;20029;-87
2022/09/24 09:09:01;;;;;;;12.35;2.55;;;;;;;14.06;100.00;101054.19;12679140;22;20357;-87
2022/09/24 09:14:18;;;;;;;8.70;1.90;;;;;;;14.88;100.00;101184.53;12785574;22;20041;-88
2022/09/24 09:19:20;;;;;;;11.43;2.83;;;;;;;13.58;100.00;101000.91;12916826;22;20023;-88
2022/09/24 09:24:26;;;;;;;12.07;2.28;;;;;;;14.20;100.00;101094.09;12873470;22;20011;-85
2022/09/24 09:29:27;;;;;;;17.10;2.70;;;;;;;13.79;100.00;101054.38;12909846;22;20030;-85
2022/09/24 09:34:43;;;;;;;12.00;2.22;;;;;;;15.03;100.00;101194.84;12875860;22;20027;-86
2022/09/24 09:40:11;;;;;;;9.52;3.10;;;;;;;14.52;100.00;101126.28;12930119;22;20031;-88
2022/09/24 09:45:40;;;;;;;12.50;2.17;;;;;;;14.66;100.00;101191.16;12960364;22;20373;-86
2022/09/24 09:50:43;;;;;;;9.02;1.88;;;;;;;13.29;100.00;101012.41;12964949;22;20065;-88
2022/09/24 09:55:49;;;;;;;17.13;2.92;;;;;;;13.38;100.00;101043.97;12907436;22;20076;-88
2022/09/24 10:00:49;;;;;;;18.15;2.65;;;;;;;13.34;100.00;101042.84;12895061;22;20008;-87
2022/09/24 10:05:59;;;;;;;16.50;2.30;;;;;;;13.58;100.00;101059.00;12893060;22;20430;-87
2022/09/24 10:11:00;;;;;;;8.50;1.52;;;;;;;13.10;100.00;100979.69;12923699;22;20034;-87
2022/09/24 10:16:02;;;;;;;17.67;2.17;;;;;;;13.78;100.00;101119.13;12869065;22;20108;-87
2022/09/24 10:21:06;;;;;;;14.93;2.00;;;;;;;14.12;100.00;101138.94;12776864;22;20025;-87
2022/09/24 10:26:06;;;;;;;7.15;1.50;;;;;;;13.82;100.00;101062.97;12792291;22;20013;-88
2022/09/24 10:31:12;;;;;;;13.70;1.92;;;;;;;13.61;100.00;101053.75;12792854;22;20025;-88
2022/09/24 10:36:19;;;;;;;8.55;1.23;;;;;;;14.25;100.00;101176.34;12665265;22;20020;-87
2022/09/24 10:41:27;;;;;;;9.60;2.85;;;;;;;13.74;100.00;101135.44;12767942;22;20008;-89
2022/09/24 10:46:49;;;;;;;9.35;1.23;;;;;;;14.24;100.00;101222.59;12623278;22;20013;-89
2022/09/24 10:52:28;;;;;;;2.97;0.82;;;;;;;13.49;100.00;101144.41;12863980;22;20357;-89
2022/09/24 10:57:48;;;;;;;7.68;0.80;;;;;;;14.02;100.00;101231.06;12775443;22;20048;-88
2022/09/24 11:03:07;;;;;;;4.68;1.00;;;;;;;13.62;100.00;101196.53;12895189;22;20033;-87
2022/09/24 11:08:36;;;;;;;5.03;0.93;;;;;;;13.36;100.00;101140.19;12797865;22;20418;-87
2022/09/24 11:13:58;;;;;;;3.38;0.70;;;;;;;13.89;100.00;101243.47;12784261;22;20018;-87
2022/09/24 11:19:01;;;;;;;8.65;1.30;;;;;;;13.16;100.00;101153.84;12749244;22;20022;-87
2022/09/24 11:24:17;;;;;;;7.30;1.20;;;;;;;12.55;100.00;101030.69;12817104;22;20020;-89
2022/09/24 11:29:18;;;;;;;5.63;1.17;;;;;;;13.85;100.00;101234.03;12798253;22;20006;-88
2022/09/24 11:34:37;;;;;;;9.60;1.30;;;;;;;13.26;100.00;101167.75;12890641;22;20339;-88
2022/09/24 11:39:41;;;;;;;5.70;1.13;;;;;;;13.90;100.00;101247.88;12653684;22;20005;-86
2022/09/24 11:44:41;;;;;;;9.85;2.15;;;;;;;13.83;100.00;101272.19;12779190;22;20018;-88
2022/09/24 11:49:57;;;;;;;7.20;1.33;;;;;;;13.97;100.00;101264.25;12832282;22;20101;-89
2022/09/24 11:55:09;;;;;;;11.57;2.58;;;;;;;13.57;100.00;101190.94;12831040;22;20021;-86
2022/09/24 12:00:15;;;;;;;8.00;1.58;;;;;;;13.97;100.00;101267.00;12785422;22;20075;-85
2022/09/24 12:05:36;;;;;;;9.10;1.27;;;;;;;14.15;100.00;101271.28;12761819;22;20001;-87
2022/09/24 12:10:42;;;;;;;11.30;1.35;;;;;;;13.53;100.00;101162.97;12763563;22;20443;-89
2022/09/24 12:15:51;;;;;;;7.20;1.50;;;;;;;13.13;100.00;101086.94;12779284;22;20367;-90
2022/09/24 12:20:55;;;;;;;9.27;1.42;;;;;;;13.36;100.00;101112.56;12654330;22;20031;-87
2022/09/24 12:25:57;;;;;;;12.48;1.60;;;;;;;13.41;100.00;101137.44;12757188;22;20008;-87
2022/09/24 12:36:19;;;;;;;10.23;1.70;;;;;;;13.57;100.00;101212.25;12789851;22;20013;-86
2022/09/24 12:41:23;;;;;;;10.25;2.45;;;;;;;13.59;100.00;101218.34;12786680;22;20056;-86
2022/09/24 12:46:37;;;;;;;9.85;2.60;;;;;;;12.96;100.00;101097.31;12646292;22;20010;-89
2022/09/24 12:51:37;;;;;;;8.00;3.45;;;;;;;13.07;100.00;101151.56;12763434;22;20005;-86
2022/09/24 12:56:39;;;;;;;9.10;3.42;;;;;;;13.97;100.00;101268.94;12650290;22;20049;-87
2022/09/24 13:01:40;;;;;;;7.50;3.40;;;;;;;13.23;100.00;101146.16;12751615;22;20436;-88
2022/09/24 13:06:42;;;;;;;9.27;3.85;;;;;;;13.68;100.00;101242.50;12761058;22;20001;-86
2022/09/24 13:11:43;;;;;;;11.15;3.50;;;;;;;13.79;100.00;101242.53;12778982;22;20343;-88
2022/09/24 13:16:52;;;;;;;13.85;4.55;;;;;;;13.67;100.00;101217.84;12754139;22;20033;-87
2022/09/24 13:21:57;;;;;;;10.55;4.38;;;;;;;13.68;100.00;101231.44;12756021;22;20006;-87
2022/09/24 13:27:27;;;;;;;10.00;4.45;;;;;;;13.22;100.00;101147.25;12756984;22;20006;-83
2022/09/24 13:32:28;;;;;;;13.45;5.10;;;;;;;12.83;100.00;101093.06;12817601;22;20039;-87
2022/09/24 13:37:38;;;;;;;16.90;7.28;;;;;;;13.32;100.00;101177.78;12759892;22;20013;-86
2022/09/24 13:43:02;;;;;;;16.05;5.63;;;;;;;14.07;100.00;101288.41;12735765;22;20010;-87
2022/09/24 13:48:04;;;;;;;13.75;5.90;;;;;;;13.24;100.00;101208.66;12710391;22;20041;-87
2022/09/24 13:53:24;;;;;;;11.77;5.32;;;;;;;13.38;100.00;101193.31;12760822;22;20018;-88
2022/09/24 13:58:32;;;;;;;10.68;4.80;;;;;;;12.85;100.00;101156.34;12761153;22;20092;-88
2022/09/24 14:03:34;;;;;;;12.82;4.55;;;;;;;13.70;100.00;101261.56;12760687;22;20021;-89
2022/09/24 14:08:34;;;;;;;15.05;3.22;;;;;;;12.51;100.00;101099.44;12758660;22;20008;-88
2022/09/24 14:13:44;;;;;;;15.18;3.25;;;;;;;12.99;100.00;101179.69;12756083;22;20041;-87
2022/09/24 14:18:45;;;;;;;14.50;3.90;;;;;;;12.84;100.00;101138.13;12656980;22;20030;-87
2022/09/24 14:23:52;;;;;;;10.07;2.75;;;;;;;12.23;100.00;101048.06;12788205;22;20013;-87
2022/09/24 14:28:52;;;;;;;14.70;2.58;;;;;;;12.44;100.00;101092.44;12788033;22;20076;-87
2022/09/24 14:33:53;;;;;;;16.35;3.15;;;;;;;13.42;100.00;101237.88;12787161;22;20091;-87
2022/09/24 14:38:58;;;;;;;14.68;3.20;;;;;;;13.04;100.00;101143.81;12787440;22;20014;-87
2022/09/24 14:44:03;;;;;;;14.65;2.55;;;;;;;14.23;100.00;101306.75;12786725;22;20081;-88
2022/09/24 14:49:05;;;;;;;10.13;2.50;;;;;;;12.86;100.00;101111.88;12815189;22;20017;-88
2022/09/24 14:54:22;;;;;;;8.32;2.30;;;;;;;13.90;100.00;101270.03;12790165;22;20059;-88
2022/09/24 14:59:29;;;;;;;;;;;;;;;14.30;100.00;101315.69;12816445;22;20319;-88
2022/09/24 15:04:30;;;;;;;10.68;3.00;;;;;;;12.13;100.00;101005.75;12791202;22;20323;-87
2022/09/24 15:09:30;;;;;;;9.10;3.28;;;;;;;13.28;100.00;101195.97;12765892;22;20013;-87
2022/09/24 15:14:31;;;;;;;10.18;3.45;;;;;;;13.34;100.00;101241.94;12792036;22;20348;-87
2022/09/24 15:19:33;;;;;;;17.08;5.97;;;;;;;13.44;100.00;101242.03;12911263;22;20419;-90
2022/09/24 15:24:34;;;;;;;9.18;3.10;;;;;;;13.62;100.00;101286.97;12882661;22;20007;-85
2022/09/24 15:29:34;;;;;;;9.40;2.85;;;;;;;13.37;100.00;101244.16;12881361;22;20008;-88
2022/09/24 15:34:35;;;;;;;9.65;2.97;;;;;;;13.06;100.00;101172.03;12891084;22;20358;-87
2022/09/24 15:39:35;;;;;;;10.77;2.30;;;;;;;13.24;100.00;101220.53;12905253;22;20439;-87
2022/09/24 15:44:36;;;;;;;9.80;1.98;;;;;;;13.60;100.00;101259.59;12878570;22;20059;-87
2022/09/24 15:49:36;;;;;;;7.47;2.10;;;;;;;13.35;100.00;101226.19;12891894;22;20054;-88
2022/09/24 15:54:37;;;;;;;10.55;1.80;;;;;;;13.59;100.00;101260.69;12844365;22;20020;-87
2022/09/24 15:59:37;;;;;;;6.25;2.00;;;;;;;12.73;100.00;101153.75;12865279;22;20010;-87
2022/09/24 16:04:38;;;;;;;6.65;1.92;;;;;;;12.76;100.00;101156.00;12883057;22;20071;-88
2022/09/24 16:09:39;;;;;;;6.43;1.80;;;;;;;13.40;100.00;101259.44;12891839;22;20345;-86
2022/09/24 16:14:40;;;;;;;9.90;1.70;;;;;;;13.19;100.00;101228.81;12852833;22;20354;-84
2022/09/24 16:19:40;;;;;;;8.30;1.42;;;;;;;13.51;100.00;101297.94;12898301;22;20023;-85
2022/09/24 16:24:41;;;;;;;9.65;1.27;;;;;;;12.29;100.00;101146.41;12888277;22;20011;-89
2022/09/24 16:29:41;;;;;;;11.90;1.75;;;;;;;12.56;100.00;101213.81;12888844;22;20124;-88
2022/09/24 16:34:42;;;;;;;11.68;1.75;;;;;;;11.56;100.00;101052.00;12905997;22;20030;-88
2022/09/24 16:39:42;;;;;;;6.45;1.08;;;;;;;12.25;100.00;101207.91;12868834;22;20096;-87
2022/09/24 16:44:43;;;;;;;4.38;0.70;;;;;;;12.23;100.00;101227.50;12888311;22;20011;-88
2022/09/24 16:49:44;;;;;;;5.80;1.55;;;;;;;12.61;100.00;101339.00;12850175;22;20004;-88
2022/09/24 16:54:45;;;;;;;3.67;0.93;;;;;;;11.43;100.00;101157.97;12880743;22;20043;-87
2022/09/24 16:59:45;;;;;;;7.88;1.58;;;;;;;12.18;100.00;101296.44;12914449;22;20011;-88
2022/09/24 17:04:46;;;;;;;5.55;0.85;;;;;;;11.94;100.00;101257.19;12854777;22;20459;-87
2022/09/24 17:15:06;;;;;;;5.35;1.25;;;;;;;11.55;100.00;101226.78;12891450;22;20022;-86
2022/09/24 17:20:08;;;;;;;6.25;1.02;;;;;;;12.60;100.00;101359.41;12824383;22;20399;-84
2022/09/24 17:25:08;;;;;;;10.18;1.10;;;;;;;11.45;100.00;101234.91;12657866;22;20444;-87
2022/09/24 17:30:09;;;;;;;8.00;1.58;;;;;;;12.11;100.00;101318.72;12779904;22;20085;-87
2022/09/24 17:35:10;;;;;;;5.60;1.08;;;;;;;11.20;100.00;101177.44;12778900;22;20036;-90
2022/09/24 17:40:11;;;;;;;4.80;1.63;;;;;;;11.19;100.00;101212.44;12774575;22;20009;-87
2022/09/24 17:45:12;;;;;;;6.55;1.10;;;;;;;11.28;100.00;101210.09;12750181;22;20006;-88
2022/09/24 17:50:12;;;;;;;5.57;1.63;;;;;;;11.96;100.00;101325.94;12750181;22;20009;-86
2022/09/24 17:55:14;;;;;;;11.70;1.50;;;;;;;11.24;100.00;101200.66;12750066;22;20014;-87
2022/09/24 18:00:14;;;;;;;8.70;1.38;;;;;;;11.03;100.00;101178.28;12753056;22;21026;-87
2022/09/24 18:05:15;;;;;;;9.75;2.25;;;;;;;10.94;100.00;101188.06;12832764;22;20092;-87
2022/09/24 18:10:17;;;;;;;6.22;1.65;;;;;;;11.59;100.00;101318.13;12755934;22;20002;-88
2022/09/24 18:15:17;;;;;;;10.07;2.05;;;;;;;11.26;100.00;101264.66;12860889;22;20023;-87
2022/09/24 18:20:19;;;;;;;12.13;2.42;;;;;;;11.78;100.00;101354.56;12848640;22;20043;-87
2022/09/24 18:25:20;;;;;;;8.23;1.50;;;;;;;11.01;100.00;101254.00;12855759;22;20023;-87
2022/09/24 18:30:20;;;;;;;11.60;2.78;;;;;;;10.53;100.00;101165.28;12857021;22;20047;-87
2022/09/24 18:35:21;;;;;;;9.43;1.83;;;;;;;10.62;100.00;101177.56;12883454;22;20016;-87
2022/09/24 18:40:22;;;;;;;8.85;1.85;;;;;;;11.00;100.00;101272.47;12905987;22;20004;-87
2022/09/24 18:45:24;;;;;;;13.60;2.15;;;;;;;11.00;100.00;101280.72;12882812;22;20007;-88
2022/09/24 18:50:25;;;;;;;16.38;1.70;;;;;;;11.74;100.00;101412.19;12897220;22;20018;-88
2022/09/24 18:55:25;;;;;;;8.50;1.42;;;;;;;10.92;100.00;101261.03;12858507;22;20561;-87
2022/09/24 19:05:50;;;;;;;10.75;1.70;;;;;;;10.77;100.00;101297.34;12919542;22;20024;-86
2022/09/24 19:10:53;;;;;;;5.47;1.05;;;;;;;12.02;100.00;101457.38;12922128;22;20004;-88
2022/09/24 19:15:54;;;;;;;8.45;2.30;;;;;;;12.02;100.00;101465.66;12820537;22;20022;-86
2022/09/24 19:20:55;;;;;;;9.45;1.30;;;;;;;10.55;100.00;101231.97;12772042;22;20323;-88
2022/09/24 19:26:00;;;;;;;10.00;1.45;;;;;;;10.25;100.00;101191.72;12761719;22;20028;-88
2022/09/24 19:31:01;;;;;;;11.32;1.42;;;;;;;10.61;100.00;101266.75;12764884;22;19998;-86
2022/09/24 19:36:03;;;;;;;12.60;1.33;;;;;;;10.71;100.00;101301.94;12760063;22;20009;-87
2022/09/24 19:41:05;;;;;;;10.45;1.40;;;;;;;10.87;100.00;101352.63;12849623;22;20015;-88
2022/09/24 19:46:08;;;;;;;7.45;1.27;;;;;;;10.15;100.00;101285.06;12923410;22;20007;-89
2022/09/24 19:51:41;;;;;;;10.98;1.85;;;;;;;9.92;100.00;101263.06;12792038;22;20006;-86
2022/09/24 19:56:42;;;;;;;5.55;1.45;;;;;;;9.74;100.00;101267.63;12742861;22;20085;-87
2022/09/24 20:01:43;;;;;;;10.15;1.45;;;;;;;10.17;100.00;101348.94;12824296;22;20033;-84
2022/09/24 20:06:44;;;;;;;15.25;1.88;;;;;;;10.23;100.00;101397.50;12769040;22;20006;-87
2022/09/24 20:11:44;;;;;;;6.15;1.30;;;;;;;9.30;100.00;101220.38;12760067;22;20020;-86
2022/09/24 20:16:45;;;;;;;7.80;1.45;;;;;;;9.81;100.00;101334.31;12761503;22;20055;-86
2022/09/24 20:21:47;;;;;;;6.75;1.20;;;;;;;9.29;100.00;101292.91;12776868;22;20052;-89
2022/09/24 20:32:08;;;;;;;8.30;1.50;;;;;;;8.77;100.00;101243.19;12783994;22;20016;-88
2022/09/24 20:37:09;;;;;;;5.10;1.55;;;;;;;9.47;100.00;101416.50;12750555;22;20067;-90
2022/09/24 20:42:10;;;;;;;10.13;2.28;;;;;;;9.26;100.00;101419.72;12749886;22;20099;-88
2022/09/24 20:47:12;;;;;;;13.82;1.88;;;;;;;8.09;100.00;101236.88;12751253;22;20495;-86
2022/09/24 20:52:12;;;;;;;6.60;1.50;;;;;;;8.72;100.00;101361.91;12861701;22;19999;-87
2022/09/24 20:57:13;;;;;;;6.47;1.70;;;;;;;8.75;100.00;101368.88;12779231;22;20037;-89
2022/09/24 21:02:14;;;;;;;8.40;2.25;;;;;;;8.98;100.00;101470.59;12758319;22;20015;-88
2022/09/24 21:07:15;;;;;;;9.52;2.72;;;;;;;7.97;100.00;101291.63;12778274;22;20083;-87
2022/09/24 21:12:15;;;;;;;9.25;2.28;;;;;;;7.26;100.00;101202.53;12759095;22;20006;-89
2022/09/24 21:17:17;;;;;;;9.35;2.55;;;;;;;7.69;100.00;101278.41;12757402;22;20022;-88
2022/09/24 21:22:18;;;;;;;6.68;2.30;;;;;;;9.04;100.00;101510.88;12781096;22;20304;-88
2022/09/24 21:27:18;;;;;;;9.48;2.10;;;;;;;8.50;100.00;101415.63;12790136;22;20001;-88
2022/09/24 21:32:19;;;;;;;7.00;2.15;;;;;;;7.57;100.00;101291.19;12760652;22;20032;-87
2022/09/24 21:37:21;;;;;;;12.57;2.45;;;;;;;7.96;100.00;101387.78;12758970;22;20021;-87
2022/09/24 21:42:22;;;;;;;5.05;2.03;;;;;;;8.05;100.00;101425.69;12837889;22;20321;-87
2022/09/24 21:47:22;;;;;;;11.38;2.13;;;;;;;7.30;100.00;101294.13;12689621;22;20087;-86
2022/09/24 21:52:23;;;;;;;14.30;2.33;;;;;;;7.09;100.00;101273.44;12775863;22;20324;-89
2022/09/24 21:57:23;;;;;;;8.35;2.05;;;;;;;8.04;100.00;101458.81;12774890;22;20092;-86
2022/09/24 22:02:24;;;;;;;11.02;3.35;;;;;;;6.54;100.00;101226.63;12810171;22;20010;-88
2022/09/24 22:07:25;;;;;;;5.82;1.90;;;;;;;6.85;100.00;101277.78;12794105;22;20050;-88
2022/09/24 22:12:25;;;;;;;15.68;2.40;;;;;;;6.62;100.00;101250.97;12833708;22;20085;-86
2022/09/24 22:17:27;;;;;;;6.95;2.20;;;;;;;6.85;100.00;101305.16;12650238;22;20021;-86
2022/09/24 22:22:27;;;;;;;14.05;2.88;;;;;;;5.95;100.00;101144.66;12783233;22;20013;-87
2022/09/24 22:27:28;;;;;;;10.38;2.50;;;;;;;6.19;100.00;101200.47;12793130;22;20320;-86
2022/09/24 22:32:29;;;;;;;11.85;3.05;;;;;;;6.84;100.00;101341.78;12793142;22;20008;-87
2022/09/24 22:37:31;;;;;;;8.18;2.70;;;;;;;6.88;100.00;101318.38;12769413;22;20088;-88
2022/09/24 22:42:31;;;;;;;12.88;2.85;;;;;;;6.62;100.00;101281.91;12794055;22;20063;-86
2022/09/24 22:47:32;;;;;;;13.13;3.42;;;;;;;6.94;100.00;101347.63;12690944;22;20071;-87
2022/09/24 22:52:32;;;;;;;12.02;2.72;;;;;;;7.33;100.00;101422.41;12789892;22;20037;-87
2022/09/24 22:57:33;;;;;;;17.45;4.53;;;;;;;6.04;100.00;101191.72;12789526;22;20422;-87
2022/09/24 23:02:34;;;;;;;9.60;2.80;;;;;;;6.06;100.00;101192.34;12779352;22;20079;-90
2022/09/24 23:07:35;;;;;;;15.05;3.00;;;;;;;6.91;100.00;101374.63;12902574;22;20025;-85
2022/09/24 23:12:35;;;;;;;9.38;2.80;;;;;;;6.73;100.00;101356.16;12790446;22;20438;-88
2022/09/24 23:17:36;;;;;;;8.52;2.97;;;;;;;6.07;100.00;101245.94;12922695;22;20445;-86
2022/09/24 23:22:37;;;;;;;14.30;3.28;;;;;;;6.28;100.00;101299.50;12880347;22;20418;-86